Decoded Metar for KGAF ( in ) (IATA:) | Meteo·Mobile Aviation Weather
aviador You're here:

KGAF Decoded Metar

in
Report Time2019-07-23 06:35:00
UTC Time2019-07-23 06:49:43
Flight Rules vfr VFR
Wind260° at 05 kt
W.Decomp.*RWY 26: 5.0 kt HW 0 kt LCW
RWY 17: 5.0 kt RCW
Visibility9999 m
Phenomena:N/A
Clouds:N/A
Expected CloudBase > 400 ft AGL from Temp-Dew spread
CeilingNone
Temp16°C
Dew Point15°C (94% RH)
AAT15.8°C
QNH1024 hPa
Raw Report
KGAF 230635Z AUTO 26005KT 10SM CLR 16/15 A3024 RMK AO2 PWINO=

Extra information for KGAF:More info

Social comments